Terminal Aerodrome Forecast
Issued by NWS Blacksburg, VA

Current Version | Previous Version | Text Only | Print | Product List | Glossary On
Versions: 1 2 3 4 5 6 7 8 9 10 11 12 13 14 15 16 17 18 19
000
FTUS41 KRNK 212339
TAFLYH
TAF
KLYH 212339Z 2200/2224 20005KT P6SM SCT040 BKN150
      TEMPO 2206/2208 3SM BR
     FM221000 20004KT P6SM OVC015
     FM221200 18004KT 2SM -DZ BR OVC008
     FM221700 15006KT 5SM -RADZ OVC008
     FM222000 11006KT 3SM -RADZ OVC015=

USA.gov is the U.S. government's official web portal to all federal, state and local government web resources and services.